sensor_id;sensor_type;location;lat;lon;timestamp;pressure;altitude;pressure_sealevel;temperature;humidity
31775;BME280;66189;49.000;11.640;2023-01-29T00:01:19;96931.13;;;-1.98;79.12
31775;BME280;66189;49.000;11.640;2023-01-29T00:03:20;96940.88;;;-1.99;79.37
31775;BME280;66189;49.000;11.640;2023-01-29T00:05:20;96939.56;;;-1.96;79.33
31775;BME280;66189;49.000;11.640;2023-01-29T00:07:21;96940.91;;;-1.93;79.08
31775;BME280;66189;49.000;11.640;2023-01-29T00:09:22;96929.53;;;-1.99;79.01
31775;BME280;66189;49.000;11.640;2023-01-29T00:11:22;96934.03;;;-1.94;79.05
31775;BME280;66189;49.000;11.640;2023-01-29T00:13:24;96926.88;;;-1.99;79.23
31775;BME280;66189;49.000;11.640;2023-01-29T00:15:25;96927.97;;;-2.00;78.57
31775;BME280;66189;49.000;11.640;2023-01-29T00:17:25;96926.38;;;-1.96;78.38
31775;BME280;66189;49.000;11.640;2023-01-29T00:19:26;96915.28;;;-2.03;78.66
31775;BME280;66189;49.000;11.640;2023-01-29T00:21:27;96915.03;;;-2.02;79.05
31775;BME280;66189;49.000;11.640;2023-01-29T00:23:30;96915.03;;;-2.02;78.40
31775;BME280;66189;49.000;11.640;2023-01-29T00:25:30;96928.78;;;-1.94;78.05
31775;BME280;66189;49.000;11.640;2023-01-29T00:27:31;96929.00;;;-2.01;77.97
31775;BME280;66189;49.000;11.640;2023-01-29T00:29:31;96927.41;;;-2.02;78.43
31775;BME280;66189;49.000;11.640;2023-01-29T00:31:31;96931.38;;;-2.00;77.75
31775;BME280;66189;49.000;11.640;2023-01-29T00:33:32;96924.75;;;-2.02;77.84
31775;BME280;66189;49.000;11.640;2023-01-29T00:35:33;96925.25;;;-2.05;78.45
31775;BME280;66189;49.000;11.640;2023-01-29T00:37:33;96926.06;;;-2.05;78.58
31775;BME280;66189;49.000;11.640;2023-01-29T00:39:34;96927.88;;;-2.10;78.39
31775;BME280;66189;49.000;11.640;2023-01-29T00:41:39;96916.28;;;-2.09;78.33
31775;BME280;66189;49.000;11.640;2023-01-29T00:43:58;96923.69;;;-2.06;78.24
31775;BME280;66189;49.000;11.640;2023-01-29T00:46:18;96923.59;;;-2.17;77.87
31775;BME280;66189;49.000;11.640;2023-01-29T00:48:18;96913.25;;;-2.23;77.86
31775;BME280;66189;49.000;11.640;2023-01-29T00:50:19;96915.09;;;-2.24;77.83
31775;BME280;66189;49.000;11.640;2023-01-29T00:52:20;96914.88;;;-2.17;78.06
31775;BME280;66189;49.000;11.640;2023-01-29T00:54:23;96918.28;;;-2.22;78.10
31775;BME280;66189;49.000;11.640;2023-01-29T00:56:24;96915.09;;;-2.24;78.57
31775;BME280;66189;49.000;11.640;2023-01-29T00:58:25;96912.19;;;-2.27;78.01
31775;BME280;66189;49.000;11.640;2023-01-29T01:00:33;96909.47;;;-2.33;78.34
31775;BME280;66189;49.000;11.640;2023-01-29T01:02:34;96909.97;;;-2.36;78.64
31775;BME280;66189;49.000;11.640;2023-01-29T01:04:53;96914.22;;;-2.35;77.30
31775;BME280;66189;49.000;11.640;2023-01-29T01:06:53;96918.38;;;-2.39;77.86
31775;BME280;66189;49.000;11.640;2023-01-29T01:08:54;96919.00;;;-2.32;78.20
31775;BME280;66189;49.000;11.640;2023-01-29T01:11:13;96909.22;;;-2.31;78.17
31775;BME280;66189;49.000;11.640;2023-01-29T01:13:13;96907.41;;;-2.30;78.16
31775;BME280;66189;49.000;11.640;2023-01-29T01:15:14;96913.44;;;-2.35;78.48
31775;BME280;66189;49.000;11.640;2023-01-29T01:17:14;96906.47;;;-2.46;78.10
31775;BME280;66189;49.000;11.640;2023-01-29T01:19:15;96908.41;;;-2.37;78.36
31775;BME280;66189;49.000;11.640;2023-01-29T01:21:16;96901.44;;;-2.48;77.67
31775;BME280;66189;49.000;11.640;2023-01-29T01:23:18;96906.72;;;-2.48;78.34
31775;BME280;66189;49.000;11.640;2023-01-29T01:25:19;96900.59;;;-2.54;77.75
31775;BME280;66189;49.000;11.640;2023-01-29T01:27:19;96901.41;;;-2.53;78.45
31775;BME280;66189;49.000;11.640;2023-01-29T01:29:20;96901.44;;;-2.48;78.80
31775;BME280;66189;49.000;11.640;2023-01-29T01:31:20;96898.03;;;-2.48;78.02
31775;BME280;66189;49.000;11.640;2023-01-29T01:33:21;96903.03;;;-2.47;78.25
31775;BME280;66189;49.000;11.640;2023-01-29T01:35:22;96896.69;;;-2.51;78.25
31775;BME280;66189;49.000;11.640;2023-01-29T01:37:22;96897.00;;;-2.47;78.69
31775;BME280;66189;49.000;11.640;2023-01-29T01:39:23;96892.16;;;-2.56;78.77
31775;BME280;66189;49.000;11.640;2023-01-29T01:41:24;96897.38;;;-2.61;78.47
31775;BME280;66189;49.000;11.640;2023-01-29T01:43:24;96890.53;;;-2.62;78.82
31775;BME280;66189;49.000;11.640;2023-01-29T01:47:32;96887.94;;;-2.57;78.91
31775;BME280;66189;49.000;11.640;2023-01-29T01:49:34;96887.78;;;-2.72;79.38
31775;BME280;66189;49.000;11.640;2023-01-29T01:51:38;96891.47;;;-2.73;79.60
31775;BME280;66189;49.000;11.640;2023-01-29T01:53:49;96893.25;;;-2.79;79.23
31775;BME280;66189;49.000;11.640;2023-01-29T01:55:57;96890.16;;;-2.71;79.05
31775;BME280;66189;49.000;11.640;2023-01-29T01:58:05;96891.72;;;-2.75;79.54
31775;BME280;66189;49.000;11.640;2023-01-29T02:00:09;96889.66;;;-2.68;79.76
31775;BME280;66189;49.000;11.640;2023-01-29T02:02:15;96879.28;;;-2.79;79.48
31775;BME280;66189;49.000;11.640;2023-01-29T02:04:34;96885.09;;;-2.77;79.02
31775;BME280;66189;49.000;11.640;2023-01-29T02:06:54;96873.09;;;-2.68;80.01
31775;BME280;66189;49.000;11.640;2023-01-29T02:09:19;96888.63;;;-2.66;79.48
31775;BME280;66189;49.000;11.640;2023-01-29T02:11:37;96889.75;;;-2.62;79.02
31775;BME280;66189;49.000;11.640;2023-01-29T02:13:38;96889.78;;;-2.57;79.39
31775;BME280;66189;49.000;11.640;2023-01-29T02:15:39;96892.13;;;-2.61;78.88
31775;BME280;66189;49.000;11.640;2023-01-29T02:17:41;96901.34;;;-2.58;79.07
31775;BME280;66189;49.000;11.640;2023-01-29T02:28:48;96905.13;;;-2.49;77.79
31775;BME280;66189;49.000;11.640;2023-01-29T02:33:18;96901.59;;;-2.60;77.80
31775;BME280;66189;49.000;11.640;2023-01-29T02:35:31;96902.94;;;-2.57;77.74
31775;BME280;66189;49.000;11.640;2023-01-29T02:38:06;96901.31;;;-2.63;77.98
31775;BME280;66189;49.000;11.640;2023-01-29T02:40:28;96897.88;;;-2.64;77.93
31775;BME280;66189;49.000;11.640;2023-01-29T02:42:46;96902.84;;;-2.68;77.54
31775;BME280;66189;49.000;11.640;2023-01-29T02:45:04;96899.13;;;-2.72;76.58
31775;BME280;66189;49.000;11.640;2023-01-29T02:47:55;96911.81;;;-2.69;77.26
31775;BME280;66189;49.000;11.640;2023-01-29T02:49:48;96905.69;;;-2.74;77.34
31775;BME280;66189;49.000;11.640;2023-01-29T02:52:03;96903.34;;;-2.71;77.26
31775;BME280;66189;49.000;11.640;2023-01-29T02:54:06;96901.78;;;-2.72;77.39
31775;BME280;66189;49.000;11.640;2023-01-29T02:56:16;96900.53;;;-2.64;77.68
31775;BME280;66189;49.000;11.640;2023-01-29T02:58:29;96900.16;;;-2.73;78.09
31775;BME280;66189;49.000;11.640;2023-01-29T03:00:36;96905.31;;;-2.83;77.55
31775;BME280;66189;49.000;11.640;2023-01-29T03:02:50;96902.44;;;-2.81;78.51
31775;BME280;66189;49.000;11.640;2023-01-29T03:04:59;96903.19;;;-2.86;78.13
31775;BME280;66189;49.000;11.640;2023-01-29T03:07:05;96899.84;;;-3.04;78.33
31775;BME280;66189;49.000;11.640;2023-01-29T03:09:14;96895.25;;;-2.91;78.99
31775;BME280;66189;49.000;11.640;2023-01-29T03:11:19;96892.41;;;-2.84;78.07
31775;BME280;66189;49.000;11.640;2023-01-29T03:14:02;96896.56;;;-2.89;77.07
31775;BME280;66189;49.000;11.640;2023-01-29T03:16:32;96894.38;;;-2.97;76.54
31775;BME280;66189;49.000;11.640;2023-01-29T03:18:37;96899.34;;;-3.00;76.85
31775;BME280;66189;49.000;11.640;2023-01-29T03:20:46;96893.41;;;-3.13;76.63
31775;BME280;66189;49.000;11.640;2023-01-29T03:22:52;96888.59;;;-2.99;77.25
31775;BME280;66189;49.000;11.640;2023-01-29T03:25:00;96897.50;;;-3.00;77.02
31775;BME280;66189;49.000;11.640;2023-01-29T03:27:26;96894.59;;;-3.04;76.48
31775;BME280;66189;49.000;11.640;2023-01-29T03:29:49;96897.09;;;-3.14;75.95
31775;BME280;66189;49.000;11.640;2023-01-29T03:32:31;96889.19;;;-3.14;76.55
31775;BME280;66189;49.000;11.640;2023-01-29T03:34:39;96897.97;;;-3.08;76.42
31775;BME280;66189;49.000;11.640;2023-01-29T03:36:48;96893.00;;;-3.05;76.90
31775;BME280;66189;49.000;11.640;2023-01-29T03:38:55;96886.84;;;-3.10;76.66
31775;BME280;66189;49.000;11.640;2023-01-29T03:40:58;96893.28;;;-3.01;76.28
31775;BME280;66189;49.000;11.640;2023-01-29T03:43:10;96895.38;;;-3.03;75.43
31775;BME280;66189;49.000;11.640;2023-01-29T03:45:21;96901.66;;;-3.04;75.53
31775;BME280;66189;49.000;11.640;2023-01-29T03:50:06;96901.88;;;-3.11;75.67
31775;BME280;66189;49.000;11.640;2023-01-29T03:52:14;96913.31;;;-3.22;75.99
31775;BME280;66189;49.000;11.640;2023-01-29T03:56:35;96911.81;;;-3.13;76.57
31775;BME280;66189;49.000;11.640;2023-01-29T04:01:01;96928.84;;;-3.21;75.51
31775;BME280;66189;49.000;11.640;2023-01-29T04:03:51;96925.22;;;-3.14;75.99
31775;BME280;66189;49.000;11.640;2023-01-29T04:06:07;96930.69;;;-3.21;74.75
31775;BME280;66189;49.000;11.640;2023-01-29T04:08:25;96924.06;;;-3.24;75.79
31775;BME280;66189;49.000;11.640;2023-01-29T04:10:28;96925.19;;;-3.19;76.37
31775;BME280;66189;49.000;11.640;2023-01-29T04:12:35;96921.09;;;-3.32;75.40
31775;BME280;66189;49.000;11.640;2023-01-29T04:14:37;96921.94;;;-3.27;76.36
31775;BME280;66189;49.000;11.640;2023-01-29T04:16:46;96921.28;;;-3.17;76.55
31775;BME280;66189;49.000;11.640;2023-01-29T04:19:11;96926.16;;;-3.26;75.94
31775;BME280;66189;49.000;11.640;2023-01-29T04:21:15;96915.53;;;-3.14;76.25
31775;BME280;66189;49.000;11.640;2023-01-29T04:23:24;96916.75;;;-3.22;75.94
31775;BME280;66189;49.000;11.640;2023-01-29T04:25:29;96916.63;;;-3.10;75.68
31775;BME280;66189;49.000;11.640;2023-01-29T04:28:05;96925.84;;;-3.07;75.38
31775;BME280;66189;49.000;11.640;2023-01-29T04:30:34;96921.06;;;-3.10;75.84
31775;BME280;66189;49.000;11.640;2023-01-29T04:32:56;96925.13;;;-3.25;75.62
31775;BME280;66189;49.000;11.640;2023-01-29T04:35:26;96926.06;;;-3.53;75.45
31775;BME280;66189;49.000;11.640;2023-01-29T04:37:37;96924.41;;;-3.59;75.31
31775;BME280;66189;49.000;11.640;2023-01-29T04:42:17;96931.75;;;-3.61;74.72
31775;BME280;66189;49.000;11.640;2023-01-29T04:44:39;96930.78;;;-3.55;76.26
31775;BME280;66189;49.000;11.640;2023-01-29T04:55:20;96932.06;;;-3.58;75.40
31775;BME280;66189;49.000;11.640;2023-01-29T04:57:30;96924.22;;;-3.52;75.77
31775;BME280;66189;49.000;11.640;2023-01-29T04:59:41;96925.16;;;-3.42;75.43
31775;BME280;66189;49.000;11.640;2023-01-29T05:01:45;96920.84;;;-3.31;75.21
31775;BME280;66189;49.000;11.640;2023-01-29T05:03:49;96923.72;;;-3.32;75.28
31775;BME280;66189;49.000;11.640;2023-01-29T05:05:53;96925.16;;;-3.42;74.85
31775;BME280;66189;49.000;11.640;2023-01-29T05:07:55;96915.31;;;-3.51;75.35
31775;BME280;66189;49.000;11.640;2023-01-29T05:09:57;96912.97;;;-3.70;75.00
31775;BME280;66189;49.000;11.640;2023-01-29T05:11:57;96909.34;;;-3.64;74.85
31775;BME280;66189;49.000;11.640;2023-01-29T05:14:01;96906.88;;;-3.53;74.69
31775;BME280;66189;49.000;11.640;2023-01-29T05:16:08;96906.50;;;-3.62;74.02
31775;BME280;66189;49.000;11.640;2023-01-29T05:18:11;96909.22;;;-3.74;74.71
31775;BME280;66189;49.000;11.640;2023-01-29T05:20:12;96906.91;;;-3.70;74.44
31775;BME280;66189;49.000;11.640;2023-01-29T05:22:15;96905.63;;;-3.68;75.39
31775;BME280;66189;49.000;11.640;2023-01-29T05:24:21;96898.53;;;-3.67;75.16
31775;BME280;66189;49.000;11.640;2023-01-29T05:26:22;96897.97;;;-3.69;74.35
31775;BME280;66189;49.000;11.640;2023-01-29T05:28:42;96904.19;;;-3.76;75.58
31775;BME280;66189;49.000;11.640;2023-01-29T05:30:47;96898.44;;;-3.72;75.22
31775;BME280;66189;49.000;11.640;2023-01-29T05:32:47;96901.56;;;-3.76;74.71
31775;BME280;66189;49.000;11.640;2023-01-29T05:34:48;96901.31;;;-3.74;74.54
31775;BME280;66189;49.000;11.640;2023-01-29T05:36:49;96893.38;;;-3.79;75.17
31775;BME280;66189;49.000;11.640;2023-01-29T05:38:49;96898.66;;;-3.57;74.23
31775;BME280;66189;49.000;11.640;2023-01-29T05:40:49;96902.91;;;-3.73;74.46
31775;BME280;66189;49.000;11.640;2023-01-29T05:42:50;96904.03;;;-3.69;74.36
31775;BME280;66189;49.000;11.640;2023-01-29T05:44:50;96908.56;;;-3.64;74.58
31775;BME280;66189;49.000;11.640;2023-01-29T05:46:51;96911.34;;;-3.71;74.73
31775;BME280;66189;49.000;11.640;2023-01-29T05:48:52;96918.38;;;-3.60;75.00
31775;BME280;66189;49.000;11.640;2023-01-29T05:50:52;96922.75;;;-3.65;74.68
31775;BME280;66189;49.000;11.640;2023-01-29T05:52:57;96925.81;;;-3.51;74.80
31775;BME280;66189;49.000;11.640;2023-01-29T05:54:58;96924.47;;;-3.54;74.46
31775;BME280;66189;49.000;11.640;2023-01-29T05:56:58;96918.19;;;-3.53;73.98
31775;BME280;66189;49.000;11.640;2023-01-29T05:58:59;96924.75;;;-3.89;74.27
31775;BME280;66189;49.000;11.640;2023-01-29T06:01:14;96920.16;;;-3.99;74.36
31775;BME280;66189;49.000;11.640;2023-01-29T06:03:15;96920.25;;;-4.11;74.70
31775;BME280;66189;49.000;11.640;2023-01-29T06:05:16;96909.66;;;-3.99;75.33
31775;BME280;66189;49.000;11.640;2023-01-29T06:07:16;96907.16;;;-3.89;75.44
31775;BME280;66189;49.000;11.640;2023-01-29T06:09:17;96912.50;;;-3.84;74.79
31775;BME280;66189;49.000;11.640;2023-01-29T06:11:17;96896.63;;;-3.89;73.96
31775;BME280;66189;49.000;11.640;2023-01-29T06:13:18;96894.81;;;-3.88;74.29
31775;BME280;66189;49.000;11.640;2023-01-29T06:15:18;96898.19;;;-3.93;74.68
31775;BME280;66189;49.000;11.640;2023-01-29T06:17:19;96885.09;;;-3.88;74.68
31775;BME280;66189;49.000;11.640;2023-01-29T06:19:19;96886.22;;;-3.84;74.89
31775;BME280;66189;49.000;11.640;2023-01-29T06:21:19;96887.03;;;-4.00;75.83
31775;BME280;66189;49.000;11.640;2023-01-29T06:23:20;96877.63;;;-3.96;74.96
31775;BME280;66189;49.000;11.640;2023-01-29T06:25:20;96876.34;;;-3.94;74.63
31775;BME280;66189;49.000;11.640;2023-01-29T06:27:21;96867.50;;;-4.04;74.50
31775;BME280;66189;49.000;11.640;2023-01-29T06:29:21;96862.16;;;-3.93;74.19
31775;BME280;66189;49.000;11.640;2023-01-29T06:31:22;96857.38;;;-3.96;74.60
31775;BME280;66189;49.000;11.640;2023-01-29T06:33:22;96851.09;;;-3.95;75.14
31775;BME280;66189;49.000;11.640;2023-01-29T06:35:23;96865.66;;;-4.04;75.33
31775;BME280;66189;49.000;11.640;2023-01-29T06:37:23;96866.81;;;-4.17;75.82
31775;BME280;66189;49.000;11.640;2023-01-29T06:39:24;96864.34;;;-4.06;75.89
31775;BME280;66189;49.000;11.640;2023-01-29T06:41:24;96871.13;;;-3.71;80.09
31775;BME280;66189;49.000;11.640;2023-01-29T06:43:25;96867.94;;;-3.73;78.63
31775;BME280;66189;49.000;11.640;2023-01-29T06:45:25;96876.16;;;-3.70;75.77
31775;BME280;66189;49.000;11.640;2023-01-29T06:47:26;96875.81;;;-3.73;74.96
31775;BME280;66189;49.000;11.640;2023-01-29T06:49:27;96879.50;;;-3.75;74.51
31775;BME280;66189;49.000;11.640;2023-01-29T06:51:27;96878.25;;;-3.89;74.96
31775;BME280;66189;49.000;11.640;2023-01-29T06:53:27;96884.47;;;-3.95;75.43
31775;BME280;66189;49.000;11.640;2023-01-29T06:55:28;96885.03;;;-3.93;74.38
31775;BME280;66189;49.000;11.640;2023-01-29T06:57:28;96881.28;;;-3.97;75.01
31775;BME280;66189;49.000;11.640;2023-01-29T06:59:29;96896.41;;;-4.04;75.48
31775;BME280;66189;49.000;11.640;2023-01-29T07:01:29;96892.81;;;-3.98;76.34
31775;BME280;66189;49.000;11.640;2023-01-29T07:03:34;96895.78;;;-3.95;76.40
31775;BME280;66189;49.000;11.640;2023-01-29T07:05:53;96898.47;;;-3.89;76.70
31775;BME280;66189;49.000;11.640;2023-01-29T07:08:00;96901.09;;;-3.89;76.04
31775;BME280;66189;49.000;11.640;2023-01-29T07:10:00;96898.47;;;-3.89;75.88
31775;BME280;66189;49.000;11.640;2023-01-29T07:12:01;96905.56;;;-3.90;75.72
31775;BME280;66189;49.000;11.640;2023-01-29T07:14:03;96906.44;;;-3.84;75.69
31775;BME280;66189;49.000;11.640;2023-01-29T07:16:04;96916.63;;;-3.88;75.83
31775;BME280;66189;49.000;11.640;2023-01-29T07:18:05;96918.16;;;-3.92;75.72
31775;BME280;66189;49.000;11.640;2023-01-29T07:20:11;96917.19;;;-4.03;76.49
31775;BME280;66189;49.000;11.640;2023-01-29T07:22:11;96912.66;;;-4.07;75.79
31775;BME280;66189;49.000;11.640;2023-01-29T07:24:12;96912.84;;;-4.14;76.21
31775;BME280;66189;49.000;11.640;2023-01-29T07:26:12;96903.81;;;-4.01;76.46
31775;BME280;66189;49.000;11.640;2023-01-29T07:28:13;96911.53;;;-4.12;76.46
31775;BME280;66189;49.000;11.640;2023-01-29T07:30:14;96904.31;;;-4.04;76.49
31775;BME280;66189;49.000;11.640;2023-01-29T07:32:15;96906.44;;;-4.01;75.86
31775;BME280;66189;49.000;11.640;2023-01-29T07:34:15;96910.97;;;-3.97;75.66
31775;BME280;66189;49.000;11.640;2023-01-29T07:36:15;96912.97;;;-4.04;75.24
31775;BME280;66189;49.000;11.640;2023-01-29T07:38:16;96920.94;;;-3.99;75.85
31775;BME280;66189;49.000;11.640;2023-01-29T07:40:16;96913.94;;;-4.10;75.79
31775;BME280;66189;49.000;11.640;2023-01-29T07:42:17;96914.44;;;-3.96;76.43
31775;BME280;66189;49.000;11.640;2023-01-29T07:44:18;96915.16;;;-4.01;75.75
31775;BME280;66189;49.000;11.640;2023-01-29T07:46:18;96916.19;;;-4.02;75.55
31775;BME280;66189;49.000;11.640;2023-01-29T07:48:18;96919.34;;;-4.00;77.02
31775;BME280;66189;49.000;11.640;2023-01-29T07:50:20;96914.97;;;-3.94;76.62
31775;BME280;66189;49.000;11.640;2023-01-29T07:52:20;96916.09;;;-3.90;76.46
31775;BME280;66189;49.000;11.640;2023-01-29T07:54:20;96917.75;;;-3.84;76.37
31775;BME280;66189;49.000;11.640;2023-01-29T07:56:21;96925.56;;;-3.89;76.43
31775;BME280;66189;49.000;11.640;2023-01-29T07:58:21;96926.66;;;-3.85;76.96
31775;BME280;66189;49.000;11.640;2023-01-29T08:00:22;96932.41;;;-3.88;76.43
31775;BME280;66189;49.000;11.640;2023-01-29T08:02:22;96923.81;;;-3.83;77.00
31775;BME280;66189;49.000;11.640;2023-01-29T08:04:23;96931.47;;;-3.99;76.72
31775;BME280;66189;49.000;11.640;2023-01-29T08:06:23;96921.00;;;-3.94;76.51
31775;BME280;66189;49.000;11.640;2023-01-29T08:08:24;96924.84;;;-4.01;76.05
31775;BME280;66189;49.000;11.640;2023-01-29T08:10:25;96929.53;;;-3.86;76.70
31775;BME280;66189;49.000;11.640;2023-01-29T08:12:26;96928.56;;;-3.80;76.53
31775;BME280;66189;49.000;11.640;2023-01-29T08:14:26;96938.91;;;-3.73;76.96
31775;BME280;66189;49.000;11.640;2023-01-29T08:16:27;96934.47;;;-3.73;76.36
31775;BME280;66189;49.000;11.640;2023-01-29T08:18:27;96934.16;;;-3.77;76.03
31775;BME280;66189;49.000;11.640;2023-01-29T08:20:28;96939.97;;;-3.75;75.59
31775;BME280;66189;49.000;11.640;2023-01-29T08:22:28;96945.72;;;-3.78;76.03
31775;BME280;66189;49.000;11.640;2023-01-29T08:24:29;96945.00;;;-3.73;75.50
31775;BME280;66189;49.000;11.640;2023-01-29T08:26:29;96952.53;;;-3.77;75.25
31775;BME280;66189;49.000;11.640;2023-01-29T08:28:30;96951.69;;;-3.65;76.01
31775;BME280;66189;49.000;11.640;2023-01-29T08:30:32;96945.94;;;-3.62;75.35
31775;BME280;66189;49.000;11.640;2023-01-29T08:32:33;96946.75;;;-3.79;75.79
31775;BME280;66189;49.000;11.640;2023-01-29T08:34:33;96950.09;;;-3.83;75.22
31775;BME280;66189;49.000;11.640;2023-01-29T08:36:34;96956.63;;;-3.86;75.31
31775;BME280;66189;49.000;11.640;2023-01-29T08:38:34;96957.97;;;-3.66;76.04
31775;BME280;66189;49.000;11.640;2023-01-29T08:40:35;96970.16;;;-3.77;76.20
31775;BME280;66189;49.000;11.640;2023-01-29T08:42:35;96962.03;;;-3.76;76.40
31775;BME280;66189;49.000;11.640;2023-01-29T08:44:36;96969.47;;;-3.89;75.61
31775;BME280;66189;49.000;11.640;2023-01-29T08:46:37;96968.19;;;-3.87;76.29
31775;BME280;66189;49.000;11.640;2023-01-29T08:48:39;96973.50;;;-3.65;76.64
31775;BME280;66189;49.000;11.640;2023-01-29T08:50:40;96980.22;;;-3.74;76.15
31775;BME280;66189;49.000;11.640;2023-01-29T08:52:41;96981.09;;;-3.85;74.84
31775;BME280;66189;49.000;11.640;2023-01-29T08:54:42;96981.00;;;-3.90;74.82
31775;BME280;66189;49.000;11.640;2023-01-29T08:56:42;96983.56;;;-3.79;74.74
31775;BME280;66189;49.000;11.640;2023-01-29T08:58:43;96990.97;;;-3.76;75.08
31775;BME280;66189;49.000;11.640;2023-01-29T09:00:43;96994.38;;;-3.92;75.33
31775;BME280;66189;49.000;11.640;2023-01-29T09:02:44;96999.50;;;-4.02;75.84
31775;BME280;66189;49.000;11.640;2023-01-29T09:04:44;97007.44;;;-4.14;76.00
31775;BME280;66189;49.000;11.640;2023-01-29T09:06:45;96995.91;;;-3.96;74.87
31775;BME280;66189;49.000;11.640;2023-01-29T09:08:45;96999.50;;;-4.02;75.16
31775;BME280;66189;49.000;11.640;2023-01-29T09:10:47;97000.50;;;-4.03;76.46
31775;BME280;66189;49.000;11.640;2023-01-29T09:12:47;97006.75;;;-3.93;75.67
31775;BME280;66189;49.000;11.640;2023-01-29T09:14:47;97002.66;;;-3.83;76.03
31775;BME280;66189;49.000;11.640;2023-01-29T09:16:48;97000.44;;;-3.91;76.03
31775;BME280;66189;49.000;11.640;2023-01-29T09:18:48;96997.47;;;-3.78;75.90
31775;BME280;66189;49.000;11.640;2023-01-29T09:20:49;96997.47;;;-3.95;75.60
31775;BME280;66189;49.000;11.640;2023-01-29T09:22:49;96994.97;;;-3.90;75.77
31775;BME280;66189;49.000;11.640;2023-01-29T09:24:52;96992.31;;;-3.90;75.60
31775;BME280;66189;49.000;11.640;2023-01-29T09:26:53;96989.06;;;-3.80;76.02
31775;BME280;66189;49.000;11.640;2023-01-29T09:28:54;96987.53;;;-3.76;75.30
31775;BME280;66189;49.000;11.640;2023-01-29T09:30:54;96993.53;;;-3.81;74.52
31775;BME280;66189;49.000;11.640;2023-01-29T09:32:55;96984.75;;;-3.86;74.55
31775;BME280;66189;49.000;11.640;2023-01-29T09:34:56;96982.28;;;-3.93;74.79
31775;BME280;66189;49.000;11.640;2023-01-29T09:36:56;96979.56;;;-3.81;76.03
31775;BME280;66189;49.000;11.640;2023-01-29T09:38:57;96982.84;;;-3.91;74.50
31775;BME280;66189;49.000;11.640;2023-01-29T09:42:14;96975.91;;;-3.80;74.91
31775;BME280;66189;49.000;11.640;2023-01-29T09:43:50;96979.34;;;-3.63;73.64
31775;BME280;66189;49.000;11.640;2023-01-29T09:45:56;96977.88;;;-3.53;74.15
31775;BME280;66189;49.000;11.640;2023-01-29T09:48:01;96975.06;;;-3.47;74.90
31775;BME280;66189;49.000;11.640;2023-01-29T09:50:10;96963.22;;;-3.66;73.24
31775;BME280;66189;49.000;11.640;2023-01-29T09:52:25;96962.41;;;-3.50;73.67
31775;BME280;66189;49.000;11.640;2023-01-29T09:54:45;96960.84;;;-3.85;73.26
31775;BME280;66189;49.000;11.640;2023-01-29T09:56:52;96961.16;;;-3.81;74.04
31775;BME280;66189;49.000;11.640;2023-01-29T09:58:56;96965.63;;;-3.65;73.84
31775;BME280;66189;49.000;11.640;2023-01-29T10:05:22;96950.97;;;-3.78;73.28
31775;BME280;66189;49.000;11.640;2023-01-29T10:11:56;96944.09;;;-3.62;73.02
31775;BME280;66189;49.000;11.640;2023-01-29T10:19:17;96932.25;;;-3.42;73.28
31775;BME280;66189;49.000;11.640;2023-01-29T10:23:50;96930.66;;;-3.43;73.10
31775;BME280;66189;49.000;11.640;2023-01-29T10:25:54;96932.31;;;-3.59;72.96
31775;BME280;66189;49.000;11.640;2023-01-29T10:27:57;96939.06;;;-3.63;73.14
31775;BME280;66189;49.000;11.640;2023-01-29T10:29:59;96945.34;;;-3.47;73.66
31775;BME280;66189;49.000;11.640;2023-01-29T10:32:01;96940.19;;;-3.59;73.89
31775;BME280;66189;49.000;11.640;2023-01-29T10:36:18;96945.75;;;-3.55;73.32
31775;BME280;66189;49.000;11.640;2023-01-29T10:38:27;96939.41;;;-3.37;73.52
31775;BME280;66189;49.000;11.640;2023-01-29T10:40:37;96930.06;;;-3.28;73.77
31775;BME280;66189;49.000;11.640;2023-01-29T10:42:44;96922.59;;;-3.36;72.37
31775;BME280;66189;49.000;11.640;2023-01-29T10:52:02;96908.34;;;-3.18;72.25
31775;BME280;66189;49.000;11.640;2023-01-29T10:58:44;96902.38;;;-3.14;72.15
31775;BME280;66189;49.000;11.640;2023-01-29T11:00:47;96903.94;;;-3.13;72.18
31775;BME280;66189;49.000;11.640;2023-01-29T11:02:49;96898.50;;;-3.28;71.80
31775;BME280;66189;49.000;11.640;2023-01-29T11:04:50;96892.88;;;-3.15;72.36
31775;BME280;66189;49.000;11.640;2023-01-29T11:06:50;96888.25;;;-3.03;72.42
31775;BME280;66189;49.000;11.640;2023-01-29T11:11:15;96878.28;;;-3.00;73.83
31775;BME280;66189;49.000;11.640;2023-01-29T11:13:17;96884.47;;;-2.90;72.59
31775;BME280;66189;49.000;11.640;2023-01-29T11:15:28;96889.72;;;-2.90;71.71
31775;BME280;66189;49.000;11.640;2023-01-29T11:17:30;96895.50;;;-3.15;71.96
31775;BME280;66189;49.000;11.640;2023-01-29T11:19:50;96892.19;;;-3.05;72.70
31775;BME280;66189;49.000;11.640;2023-01-29T11:21:59;96885.47;;;-3.18;73.12
31775;BME280;66189;49.000;11.640;2023-01-29T11:24:10;96889.31;;;-3.04;73.38
31775;BME280;66189;49.000;11.640;2023-01-29T11:26:13;96894.09;;;-3.00;72.96
31775;BME280;66189;49.000;11.640;2023-01-29T11:28:34;96895.81;;;-2.84;74.11
31775;BME280;66189;49.000;11.640;2023-01-29T11:30:37;96899.03;;;-2.82;74.43
31775;BME280;66189;49.000;11.640;2023-01-29T11:32:38;96895.25;;;-2.64;74.35
31775;BME280;66189;49.000;11.640;2023-01-29T11:37:15;96887.94;;;-2.57;72.89
31775;BME280;66189;49.000;11.640;2023-01-29T11:39:18;96883.75;;;-2.53;72.75
31775;BME280;66189;49.000;11.640;2023-01-29T11:41:19;96871.97;;;-2.45;72.76
31775;BME280;66189;49.000;11.640;2023-01-29T11:43:29;96866.28;;;-2.64;71.69
31775;BME280;66189;49.000;11.640;2023-01-29T11:45:30;96858.19;;;-2.52;72.61
31775;BME280;66189;49.000;11.640;2023-01-29T11:47:33;96853.53;;;-2.45;72.63
31775;BME280;66189;49.000;11.640;2023-01-29T11:49:34;96844.59;;;-2.44;71.09
31775;BME280;66189;49.000;11.640;2023-01-29T11:51:35;96832.59;;;-2.57;70.17
31775;BME280;66189;49.000;11.640;2023-01-29T11:53:39;96834.41;;;-2.62;71.66
31775;BME280;66189;49.000;11.640;2023-01-29T11:55:44;96839.19;;;-2.59;72.21
31775;BME280;66189;49.000;11.640;2023-01-29T11:57:52;96840.81;;;-2.53;71.24
31775;BME280;66189;49.000;11.640;2023-01-29T11:59:56;96831.47;;;-2.66;71.57
31775;BME280;66189;49.000;11.640;2023-01-29T12:04:20;96830.69;;;-2.66;70.26